This is the latest recevied weather packets stored in our database for station/object EFTU. If no packets are shown the sender has not sent any weather packets the latest 10 day(s).
| Time | Temp. | Humidity | Pressure | Rain* | Wind** | Luminosity | Snow |
|---|---|---|---|---|---|---|---|
| 1777693626 | 3.89° C | 92% | 1011.9 hPa | - | - | - | - |
| 1777692425 | 2.78° C | 97% | 1012 hPa | - | - | - | - |
| 1777691226 | 2.78° C | 98% | 1012.1 hPa | - | - | - | - |
| 1777690025 | 2.78° C | 95% | 1012.2 hPa | - | - | - | - |
| 1777688826 | 3.33° C | 95% | 1012.3 hPa | - | - | - | - |
| 1777687625 | 2.78° C | 97% | 1012.5 hPa | - | - | - | - |
| 1777686425 | 2.78° C | 98% | 1012.6 hPa | - | - | - | - |
| 1777685226 | 2.78° C | 98% | 1012.7 hPa | - | - | - | - |
| 1777684026 | 2.78° C | 97% | 1012.8 hPa | - | - | - | - |
| 1777682825 | 3.33° C | 95% | 1012.9 hPa | - | - | - | - |
| 1777681625 | 2.78° C | 97% | 1013.1 hPa | - | - | - | - |
| 1777680425 | 3.33° C | 97% | 1013.2 hPa | - | - | - | - |
| 1777679225 | 3.33° C | 97% | 1013.4 hPa | - | - | - | - |
| 1777678024 | 3.89° C | 93% | 1013.5 hPa | - | - | - | - |
| 1777676825 | 4.44° C | 89% | 1013.8 hPa | - | - | - | - |
| 1777675625 | 4.44° C | 91% | 1014 hPa | - | - | - | - |
| 1777674425 | 6.11° C | 86% | 1014 hPa | - | - | - | - |
| 1777673225 | 6.11° C | 84% | 1014.1 hPa | - | - | - | - |
| 1777672024 | 6.67° C | 83% | 1014.1 hPa | - | - | - | - |
| 1777670824 | 7.22° C | 81% | 1014.2 hPa | - | - | - | - |
| 1777669624 | 7.78° C | 77% | 1014.5 hPa | - | - | - | - |
| 1777668424 | 8.33° C | 75% | 1014.6 hPa | - | - | - | - |
| 1777667224 | 8.89° C | 72% | 1014.8 hPa | - | - | - | - |
| 1777666023 | 9.44° C | 70% | 1015 hPa | - | - | - | - |
| 1777664823 | 10° C | 68% | 1015.1 hPa | - | - | - | - |
* Rain since midnight (hover to see other rain measurements)
** Current wind speed in m/s (hover to see current wind gust speed)